< < Back
Terminal Aerodrome Forecast


Current Version              Previous Versions:   1  2  3  4  5  6  7  8  9  

Terminal Aerodrome Forecast

567
FTUS42 KFFC 060538
TAFMCN
TAF
KMCN 060538Z 0606/0706 04004KT P6SM FEW250
     FM061500 07006KT P6SM SCT150 BKN250
     FM062100 03005KT P6SM SCT050 BKN100
     FM070300 36004KT P6SM BKN050
     FM070400 36004KT P6SM SCT050=

Latest METAR

721
SAUS80 KWBC 060700 RRB
MTRMCN
METAR KMCN 060653Z AUTO 27004KT 10SM CLR M01/M02 A3036 RMK AO2 SLP281
T10111022 TSNO


USA.gov is the U.S. government's official web portal to all federal, state and local government web resources and services.